createdAt,value
2022-10-06T14:35:14.560Z,3.00
2022-10-06T14:37:42.610Z,5.57
2022-10-06T14:40:12.240Z,4.30
2022-10-06T14:42:40.597Z,5.03
2022-10-06T14:45:09.118Z,4.07
2022-10-06T14:47:38.405Z,2.25
2022-10-06T14:50:07.551Z,2.78
2022-10-06T14:52:36.202Z,2.67
2022-10-06T14:55:05.223Z,3.00
2022-10-06T14:57:34.642Z,3.65
2022-10-06T15:00:03.549Z,3.72
2022-10-06T15:02:31.666Z,3.53
2022-10-06T15:04:59.793Z,3.78
2022-10-06T15:07:46.510Z,3.65
2022-10-06T15:10:14.783Z,3.55
2022-10-06T15:12:42.821Z,3.83
2022-10-06T15:15:11.110Z,4.43
2022-10-06T15:17:39.512Z,4.80
2022-10-06T15:20:08.510Z,5.00
2022-10-06T15:22:36.437Z,4.68
2022-10-06T15:25:05.766Z,5.25
2022-10-06T15:27:52.468Z,5.50
2022-10-06T15:30:21.335Z,5.90
2022-10-06T15:32:49.845Z,6.60
2022-10-06T15:35:17.744Z,5.75
2022-10-06T15:37:46.076Z,6.47
2022-10-06T15:40:14.454Z,5.78
2022-10-06T15:42:42.387Z,5.50
2022-10-06T15:45:10.936Z,5.97
2022-10-06T15:47:38.828Z,5.00
2022-10-06T15:50:07.198Z,4.20
2022-10-06T15:52:35.617Z,4.53
2022-10-06T15:55:03.825Z,4.30
2022-10-06T15:57:31.776Z,4.32
2022-10-06T16:00:03.097Z,3.72
2022-10-06T16:02:40.395Z,3.90
2022-10-06T16:05:09.002Z,3.70
2022-10-06T16:07:36.892Z,3.47
2022-10-06T16:10:05.339Z,3.47
2022-10-06T16:12:33.753Z,3.50
2022-10-06T16:15:01.581Z,4.05
2022-10-06T16:17:29.429Z,3.92
2022-10-06T16:19:57.926Z,3.50
2022-10-06T16:22:25.739Z,3.30
2022-10-06T16:24:53.631Z,3.45
2022-10-06T16:27:21.960Z,3.78
2022-10-06T16:29:49.842Z,4.13
2022-10-06T16:32:17.669Z,4.13
2022-10-06T16:34:50.552Z,4.85
2022-10-06T16:37:18.474Z,4.70
2022-10-06T16:39:47.540Z,5.47
2022-10-06T16:42:15.675Z,5.00
2022-10-06T16:44:43.523Z,5.90
2022-10-06T16:47:11.590Z,6.20
2022-10-06T16:49:39.706Z,5.93
2022-10-06T16:52:07.681Z,6.55
2022-10-06T16:54:35.886Z,7.40
2022-10-06T16:57:06.918Z,6.68
2022-10-06T16:59:35.012Z,6.53
2022-10-06T17:02:03.176Z,6.97
2022-10-06T17:04:31.274Z,6.05
2022-10-06T17:06:59.374Z,6.10
2022-10-06T17:09:29.849Z,6.07
2022-10-06T17:12:03.400Z,5.65
2022-10-06T17:14:33.352Z,5.53
2022-10-06T17:17:01.638Z,5.78
2022-10-06T17:19:31.145Z,6.10
2022-10-06T17:22:00.090Z,6.40
2022-10-06T17:24:29.783Z,5.97
2022-10-06T17:26:59.229Z,6.15
2022-10-06T17:29:27.518Z,7.03
2022-10-06T17:32:00.243Z,5.85
2022-10-06T17:34:33.483Z,6.25
2022-10-06T17:37:02.586Z,6.38
2022-10-06T17:39:31.412Z,6.47
2022-10-06T17:41:59.962Z,7.00
2022-10-06T17:44:29.429Z,6.80
2022-10-06T17:47:00.805Z,7.18
2022-10-06T17:49:32.930Z,6.50
2022-10-06T17:52:01.529Z,7.68
2022-10-06T17:54:32.072Z,6.97
2022-10-06T17:57:00.416Z,7.03
2022-10-06T17:59:31.543Z,6.65
2022-10-06T18:02:07.310Z,7.70
2022-10-06T18:04:39.000Z,6.88
2022-10-06T18:09:36.589Z,7.60
2022-10-06T18:12:05.116Z,7.82
2022-10-06T18:14:33.761Z,8.57
2022-10-06T18:17:04.071Z,8.02
2022-10-06T18:19:35.102Z,7.70
2022-10-06T18:22:11.763Z,7.88
2022-10-06T18:24:40.748Z,6.18
2022-10-06T18:27:09.205Z,6.25
2022-10-06T18:29:38.792Z,4.82
2022-10-06T18:37:44.582Z,3.67
2022-10-06T18:40:14.991Z,4.35
2022-10-06T18:42:43.188Z,4.72
2022-10-06T18:45:33.211Z,5.50
2022-10-06T18:48:22.325Z,3.70
2022-10-06T18:51:01.153Z,3.95
2022-10-06T18:53:32.721Z,4.43
2022-10-06T18:56:01.107Z,3.95
2022-10-06T18:58:30.159Z,5.20
2022-10-06T19:01:03.724Z,5.93
2022-10-06T19:03:32.163Z,4.90
2022-10-06T19:06:00.341Z,6.43
2022-10-06T19:08:28.397Z,5.95
2022-10-06T19:11:17.428Z,5.95
2022-10-06T19:13:49.576Z,6.55
2022-10-06T19:16:18.680Z,5.70
2022-10-06T19:18:47.426Z,4.80
2022-10-06T19:21:15.583Z,4.85
2022-10-06T19:23:44.156Z,3.70
2022-10-06T19:26:13.261Z,4.65
2022-10-06T19:28:41.602Z,5.63
2022-10-06T19:31:20.224Z,6.32
2022-10-06T19:33:49.177Z,6.43
2022-10-06T19:36:17.750Z,7.15
2022-10-06T19:38:45.870Z,7.05
2022-10-06T19:41:33.422Z,7.35
2022-10-06T19:44:04.188Z,7.10
2022-10-06T19:46:32.125Z,7.80
2022-10-06T19:49:05.872Z,7.80
2022-10-06T19:51:35.192Z,7.63
2022-10-06T19:54:04.861Z,6.85
2022-10-06T19:56:33.519Z,7.13
2022-10-06T19:59:03.542Z,6.85
2022-10-06T20:01:32.582Z,7.72
2022-10-06T20:04:04.079Z,7.70
2022-10-06T20:06:35.995Z,7.68
2022-10-06T20:09:09.536Z,7.95
2022-10-06T20:11:41.608Z,8.02
2022-10-06T20:14:20.567Z,8.27
2022-10-06T20:16:51.964Z,9.35
2022-10-06T20:19:33.533Z,10.73
2022-10-06T20:22:06.894Z,15.73
2022-10-06T20:24:35.433Z,19.85
2022-10-06T20:27:03.389Z,33.58
2022-10-06T20:29:31.972Z,28.98
2022-10-06T20:32:00.285Z,29.63
2022-10-06T20:34:33.238Z,21.67
2022-10-06T20:37:03.614Z,19.60
2022-10-06T20:39:52.588Z,11.27
2022-10-06T20:42:21.805Z,8.32
2022-10-06T20:44:50.085Z,6.68
2022-10-06T20:47:18.498Z,6.60
2022-10-06T20:49:46.803Z,7.78
2022-10-06T20:52:15.075Z,24.33
2022-10-06T20:54:43.415Z,31.42
2022-10-06T20:57:12.579Z,97.63
2022-10-06T20:59:40.766Z,67.78
2022-10-06T21:02:11.205Z,17.88
2022-10-06T21:04:43.807Z,9.60
2022-10-06T21:07:12.750Z,6.93
2022-10-06T21:09:41.240Z,7.30
2022-10-06T21:12:09.521Z,7.72
2022-10-06T21:14:38.077Z,7.43
2022-10-06T21:17:06.015Z,6.93
2022-10-06T21:19:38.222Z,6.65
2022-10-06T21:22:07.006Z,7.68
2022-10-06T21:24:35.049Z,7.30
2022-10-06T21:27:03.390Z,6.80
2022-10-06T21:29:31.658Z,8.13
2022-10-06T21:31:59.823Z,8.13
2022-10-06T21:34:28.104Z,8.57
2022-10-06T21:36:56.505Z,8.32
2022-10-06T21:39:24.466Z,16.08
2022-10-06T21:41:52.438Z,11.68
2022-10-06T21:44:20.606Z,18.08
2022-10-06T21:46:54.901Z,10.32
2022-10-06T21:49:24.860Z,8.27
2022-10-06T21:51:55.566Z,8.38
2022-10-06T21:54:24.274Z,8.57
2022-10-06T21:56:52.715Z,8.25
2022-10-06T21:59:21.062Z,49.17
2022-10-06T22:01:52.206Z,31.52
2022-10-06T22:04:20.178Z,11.55
2022-10-06T22:06:52.043Z,7.35
2022-10-06T22:09:21.010Z,7.25
2022-10-06T22:11:50.034Z,6.57
2022-10-06T22:14:20.379Z,6.32
2022-10-06T22:16:48.996Z,5.97
2022-10-06T22:19:18.237Z,5.80
2022-10-06T22:21:49.013Z,7.93
2022-10-06T22:24:20.376Z,8.77
2022-10-06T22:27:01.434Z,7.25
2022-10-06T22:29:29.547Z,6.68
2022-10-06T22:31:58.764Z,8.02
2022-10-06T22:34:27.597Z,7.25
2022-10-06T22:36:55.706Z,7.00
2022-10-06T22:39:23.509Z,7.85
2022-10-06T22:41:51.603Z,7.15
2022-10-06T22:44:20.292Z,6.50
2022-10-06T22:46:48.347Z,6.18
2022-10-06T22:49:16.399Z,5.82
2022-10-06T22:51:44.658Z,6.60
2022-10-06T22:54:18.909Z,6.97
2022-10-06T22:56:47.042Z,7.38
2022-10-06T22:59:15.338Z,8.38
2022-10-06T23:01:43.325Z,8.88
2022-10-06T23:04:11.548Z,8.93
2022-10-06T23:06:39.427Z,7.80
2022-10-06T23:09:07.728Z,7.85
2022-10-06T23:11:36.155Z,6.97
2022-10-06T23:14:03.998Z,8.45
2022-10-06T23:16:31.886Z,8.02
2022-10-06T23:19:01.042Z,6.43
2022-10-06T23:21:28.923Z,5.82
2022-10-06T23:24:00.151Z,5.38
2022-10-06T23:26:28.511Z,6.05
2022-10-06T23:29:01.339Z,6.90
2022-10-06T23:31:30.114Z,7.22
2022-10-06T23:33:58.591Z,6.78
2022-10-06T23:36:26.506Z,7.82
2022-10-06T23:38:54.719Z,7.43
2022-10-06T23:41:23.022Z,8.68
2022-10-06T23:43:51.170Z,7.47
2022-10-06T23:46:19.211Z,8.52
2022-10-06T23:48:48.508Z,7.38
2022-10-06T23:51:17.086Z,7.07
2022-10-06T23:53:45.771Z,8.27
2022-10-06T23:56:14.501Z,7.18
2022-10-06T23:58:42.899Z,7.28
